createdAt,value
2018-06-01T00:18:12.878Z,1.30
2018-06-01T01:00:00.023Z,1.40
2018-06-01T01:02:27.422Z,1.80
2018-06-01T01:22:05.895Z,2.00
2018-06-01T01:24:33.319Z,1.80
2018-06-01T01:27:00.722Z,1.90
2018-06-01T01:29:28.891Z,2.00
2018-06-01T01:34:23.295Z,2.00
2018-06-01T01:36:50.699Z,2.10
2018-06-01T01:39:18.887Z,2.40
2018-06-01T01:41:46.299Z,2.37
2018-06-01T01:51:36.879Z,2.60
2018-06-01T01:54:05.067Z,3.55
2018-06-01T01:56:32.471Z,2.63
2018-06-01T02:03:55.328Z,1.60
2018-06-01T02:06:22.727Z,1.90
2018-06-01T02:08:50.136Z,1.80
2018-06-01T02:13:44.590Z,1.70
2018-06-01T02:16:11.995Z,1.50
2018-06-01T02:18:39.405Z,1.90
2018-06-01T02:21:06.803Z,1.60
2018-06-01T02:23:34.217Z,1.67
2018-06-01T02:26:01.615Z,2.10
2018-06-01T02:28:29.074Z,1.93
2018-06-01T02:30:56.477Z,2.13
2018-06-01T02:33:23.890Z,1.90
2018-06-01T02:35:52.054Z,1.80
2018-06-01T02:38:20.275Z,2.00
2018-06-01T02:40:47.687Z,2.10
2018-06-01T02:45:42.050Z,2.20
2018-06-01T02:48:09.455Z,2.30
2018-06-01T02:50:36.866Z,2.55
2018-06-01T02:53:04.271Z,2.80
2018-06-01T02:55:31.679Z,3.10
2018-06-01T02:57:59.088Z,2.40
2018-06-01T03:00:26.501Z,2.40
2018-06-01T03:02:53.899Z,2.60
2018-06-01T03:05:21.311Z,2.45
2018-06-01T03:07:48.715Z,2.50
2018-06-01T03:10:16.119Z,3.23
2018-06-01T03:12:43.520Z,3.60
2018-06-01T03:15:10.929Z,2.87
2018-06-01T03:17:39.110Z,2.80
2018-06-01T03:20:06.524Z,2.70
2018-06-01T03:22:34.692Z,3.30
2018-06-01T03:25:02.098Z,2.97
2018-06-01T03:27:29.507Z,2.57
2018-06-01T03:29:56.973Z,3.00
2018-06-01T03:32:24.367Z,2.85
2018-06-01T03:34:51.775Z,3.07
2018-06-01T03:37:19.175Z,2.85
2018-06-01T03:39:46.587Z,2.80
2018-06-01T03:42:13.991Z,2.43
2018-06-01T03:44:41.412Z,2.63
2018-06-01T03:47:08.811Z,2.63
2018-06-01T03:49:36.215Z,2.33
2018-06-01T03:52:03.623Z,2.37
2018-06-01T03:54:31.027Z,2.70
2018-06-01T03:56:58.434Z,3.03
2018-06-01T03:59:25.844Z,2.83
2018-06-01T04:01:53.247Z,2.83
2018-06-01T04:04:20.651Z,2.73
2018-06-01T04:06:48.063Z,2.40
2018-06-01T04:09:15.679Z,2.77
2018-06-01T04:11:43.087Z,2.90
2018-06-01T04:14:10.492Z,3.00
2018-06-01T04:16:37.900Z,2.70
2018-06-01T04:23:59.223Z,3.30
2018-06-01T04:26:26.626Z,3.10
2018-06-01T04:28:54.795Z,2.70
2018-06-01T04:31:23.089Z,3.60
2018-06-01T04:33:50.511Z,3.00
2018-06-01T04:36:17.920Z,2.53
2018-06-01T04:38:45.318Z,2.70
2018-06-01T04:41:12.728Z,2.80
2018-06-01T04:43:40.131Z,3.30
2018-06-01T04:46:07.551Z,3.07
2018-06-01T04:48:34.947Z,3.23
2018-06-01T04:51:03.121Z,3.10
2018-06-01T04:53:30.570Z,3.00
2018-06-01T04:55:57.975Z,2.80
2018-06-01T04:58:26.146Z,2.57
2018-06-01T05:00:53.547Z,3.00
2018-06-01T05:03:20.952Z,3.23
2018-06-01T05:05:48.359Z,3.27
2018-06-01T05:08:16.562Z,3.23
2018-06-01T05:10:43.966Z,3.60
2018-06-01T05:13:12.150Z,3.50
2018-06-01T05:15:39.554Z,3.43
2018-06-01T05:18:07.726Z,3.10
2018-06-01T05:20:35.899Z,3.40
2018-06-01T05:23:03.303Z,2.73
2018-06-01T05:25:30.703Z,3.27
2018-06-01T05:27:58.107Z,2.60
2018-06-01T05:30:25.526Z,3.20
2018-06-01T05:32:52.927Z,3.10
2018-06-01T05:35:20.329Z,2.90
2018-06-01T05:37:48.503Z,3.50
2018-06-01T05:40:15.908Z,2.97
2018-06-01T05:42:43.320Z,3.10
2018-06-01T05:45:10.727Z,3.30
2018-06-01T05:47:38.135Z,3.20
2018-06-01T05:50:05.547Z,2.97
2018-06-01T05:52:32.984Z,2.77
2018-06-01T05:55:00.392Z,2.80
2018-06-01T06:04:48.676Z,3.27
2018-06-01T06:07:16.079Z,3.00
2018-06-01T06:09:43.491Z,3.00
2018-06-01T06:12:11.654Z,2.87
2018-06-01T06:14:39.063Z,2.90
2018-06-01T06:17:06.470Z,2.70
2018-06-01T06:22:00.837Z,2.80
2018-06-01T06:24:28.239Z,3.17
2018-06-01T06:26:56.408Z,3.10
2018-06-01T06:29:23.823Z,3.13
2018-06-01T06:31:51.223Z,2.80
2018-06-01T06:34:18.626Z,3.15
2018-06-01T06:36:46.031Z,3.17
2018-06-01T06:39:13.434Z,2.70
2018-06-01T06:44:07.804Z,2.57
2018-06-01T06:46:35.203Z,3.23
2018-06-01T06:49:03.821Z,2.80
2018-06-01T06:51:32.432Z,2.77
2018-06-01T06:53:59.840Z,2.80
2018-06-01T06:56:27.239Z,2.90
2018-06-01T06:58:55.411Z,2.60
2018-06-01T07:01:22.815Z,2.60
2018-06-01T07:03:50.995Z,2.80
2018-06-01T07:08:47.587Z,3.07
2018-06-01T07:13:42.073Z,2.90
2018-06-01T07:21:05.044Z,2.83
2018-06-01T07:23:32.444Z,2.87
2018-06-01T07:25:59.860Z,3.03
2018-06-01T07:28:27.259Z,3.00
2018-06-01T07:30:55.439Z,2.50
2018-06-01T07:33:22.941Z,4.00
2018-06-01T07:35:51.028Z,3.20
2018-06-01T07:38:18.431Z,3.10
2018-06-01T07:40:45.842Z,3.40
2018-06-01T07:45:40.290Z,3.50
2018-06-01T07:48:07.703Z,3.07
2018-06-01T07:50:35.881Z,2.85
2018-06-01T07:53:03.278Z,3.47
2018-06-01T08:05:18.552Z,3.00
2018-06-01T08:10:12.928Z,2.83
2018-06-01T08:12:40.348Z,3.17
2018-06-01T08:15:07.744Z,3.40
2018-06-01T08:20:02.119Z,3.27
2018-06-01T08:24:56.491Z,3.03
2018-06-01T08:32:17.833Z,3.03
2018-06-01T08:42:06.112Z,3.10
2018-06-01T08:49:28.200Z,3.27
2018-06-01T08:54:22.568Z,2.87
2018-06-01T08:56:49.974Z,2.83
2018-06-01T08:59:17.464Z,3.13
2018-06-01T09:01:44.799Z,3.17
2018-06-01T09:04:12.208Z,2.70
2018-06-01T09:06:39.611Z,2.63
2018-06-01T09:09:07.015Z,2.90
2018-06-01T09:11:34.421Z,2.83
2018-06-01T09:14:01.823Z,3.03
2018-06-01T09:16:30.011Z,3.03
2018-06-01T09:18:57.407Z,2.90
2018-06-01T09:21:24.820Z,3.03
2018-06-01T09:23:52.223Z,3.43
2018-06-01T09:31:14.342Z,2.70
2018-06-01T09:36:08.705Z,2.53
2018-06-01T09:41:04.638Z,2.80
2018-06-01T09:43:32.042Z,2.93
2018-06-01T09:46:00.215Z,2.43
2018-06-01T09:48:27.630Z,2.40
2018-06-01T09:50:55.033Z,2.70
2018-06-01T09:53:22.454Z,2.30
2018-06-01T09:55:49.863Z,2.37
2018-06-01T09:58:18.035Z,2.27
2018-06-01T10:00:51.084Z,2.77
2018-06-01T10:03:18.504Z,2.33
2018-06-01T10:05:45.907Z,2.60
2018-06-01T10:08:13.319Z,2.60
2018-06-01T10:10:41.492Z,2.47
2018-06-01T10:13:08.895Z,2.80
2018-06-01T10:18:03.272Z,2.73
2018-06-01T10:25:24.619Z,2.83
2018-06-01T10:27:52.167Z,2.87
2018-06-01T10:30:19.583Z,2.40
2018-06-01T10:32:47.759Z,3.07
2018-06-01T10:35:15.212Z,2.60
2018-06-01T10:37:42.632Z,2.60
2018-06-01T10:40:10.813Z,2.30
2018-06-01T10:42:38.211Z,2.77
2018-06-01T10:47:34.144Z,3.60
2018-06-01T10:50:01.547Z,2.80
2018-06-01T10:52:28.946Z,3.10
2018-06-01T10:54:56.355Z,2.87
2018-06-01T10:59:51.507Z,2.87
2018-06-01T11:02:18.911Z,2.93
2018-06-01T11:04:46.319Z,2.47
2018-06-01T11:07:14.506Z,2.50
2018-06-01T11:09:41.920Z,2.70
2018-06-01T11:12:10.094Z,2.72
2018-06-01T11:14:38.258Z,2.15
2018-06-01T11:17:05.666Z,2.85
2018-06-01T11:19:33.088Z,2.15
2018-06-01T11:24:27.472Z,2.25
2018-06-01T11:26:54.937Z,2.30
2018-06-01T11:29:22.290Z,2.40
2018-06-01T11:31:49.699Z,3.00
2018-06-01T11:34:17.111Z,2.83
2018-06-01T11:36:44.526Z,2.90
2018-06-01T11:39:11.939Z,2.60
2018-06-01T11:41:40.119Z,3.00
2018-06-01T11:44:07.536Z,2.62
2018-06-01T11:46:35.703Z,2.70
2018-06-01T11:49:03.879Z,2.73
2018-06-01T11:51:31.284Z,3.33
2018-06-01T11:53:58.707Z,3.00
2018-06-01T11:56:26.115Z,2.83
2018-06-01T11:58:53.534Z,3.15
2018-06-01T12:01:21.716Z,2.95
2018-06-01T12:03:49.115Z,2.78
2018-06-01T12:06:17.291Z,2.97
2018-06-01T12:16:05.598Z,2.80
2018-06-01T12:18:33.008Z,2.85
2018-06-01T12:25:55.119Z,2.85
2018-06-01T12:28:22.535Z,2.70
2018-06-01T12:30:49.960Z,2.80
2018-06-01T12:33:18.143Z,3.08
2018-06-01T12:35:45.557Z,2.70
2018-06-01T12:52:57.068Z,2.35
2018-06-01T12:57:52.209Z,2.87
2018-06-01T13:00:19.612Z,2.30
2018-06-01T13:02:47.087Z,2.00
2018-06-01T13:12:35.382Z,2.40
2018-06-01T13:15:02.793Z,2.90
2018-06-01T13:27:21.131Z,2.20
2018-06-01T13:46:58.848Z,2.10
2018-06-01T13:49:26.247Z,2.12
2018-06-01T14:31:09.036Z,2.30
2018-06-01T14:33:36.439Z,2.47
2018-06-01T14:40:57.816Z,2.60
2018-06-01T14:43:25.992Z,2.50
2018-06-01T14:45:53.396Z,2.33
2018-06-01T14:50:47.792Z,2.17
2018-06-01T14:53:15.960Z,2.12
2018-06-01T14:55:43.362Z,2.10
2018-06-01T14:58:10.776Z,2.20
2018-06-01T15:00:38.184Z,2.40
2018-06-01T15:05:32.552Z,2.20
2018-06-01T15:12:54.672Z,2.45
2018-06-01T15:15:22.872Z,2.22
2018-06-01T15:17:50.280Z,2.03
2018-06-01T15:20:17.712Z,1.98
2018-06-01T15:25:12.839Z,2.10
2018-06-01T15:30:07.211Z,1.90
2018-06-01T15:32:34.621Z,1.90
2018-06-01T15:37:29.016Z,1.70
2018-06-01T15:39:56.424Z,2.03
2018-06-01T15:44:51.660Z,1.80
2018-06-01T15:47:19.831Z,2.20
2018-06-01T15:49:48.014Z,2.30
2018-06-01T15:52:15.498Z,1.85
2018-06-01T15:54:42.884Z,1.87
2018-06-01T15:57:10.287Z,2.03
2018-06-01T15:59:37.715Z,2.00
2018-06-01T16:02:05.115Z,1.73
2018-06-01T16:04:32.532Z,1.80
2018-06-01T16:07:00.736Z,1.83
2018-06-01T16:09:28.151Z,1.60
2018-06-01T16:11:55.560Z,1.50
2018-06-01T16:14:22.973Z,1.80
2018-06-01T16:16:50.395Z,1.73
2018-06-01T16:19:17.807Z,1.63
2018-06-01T16:21:45.979Z,2.43
2018-06-01T16:24:13.379Z,2.90
2018-06-01T16:26:40.795Z,3.20
2018-06-01T16:29:08.199Z,3.67
2018-06-01T16:31:35.612Z,3.80
2018-06-01T16:34:03.019Z,3.00
2018-06-01T16:39:05.055Z,3.23
2018-06-01T16:44:00.963Z,2.80
2018-06-01T16:48:56.104Z,1.90
2018-06-01T16:53:51.239Z,1.70
2018-06-01T16:58:46.432Z,1.62
2018-06-01T17:06:08.527Z,1.25
2018-06-01T17:20:52.298Z,0.95
2018-06-01T17:23:19.708Z,1.30
2018-06-01T17:25:47.904Z,1.12
2018-06-01T17:28:15.307Z,1.30
2018-06-01T17:30:42.707Z,1.10
2018-06-01T17:40:31.010Z,1.50
2018-06-01T17:42:58.421Z,1.60
2018-06-01T17:45:25.827Z,1.92
2018-06-01T17:47:53.241Z,1.60
2018-06-01T17:50:20.651Z,1.40
2018-06-01T17:55:15.783Z,1.60
2018-06-01T17:57:43.187Z,1.65
2018-06-01T18:02:38.336Z,1.52
2018-06-01T18:05:05.731Z,2.00
2018-06-01T18:07:33.140Z,1.80
2018-06-01T18:10:00.538Z,1.90
2018-06-01T18:12:27.939Z,1.80
2018-06-01T18:14:56.114Z,1.90
2018-06-01T18:17:23.531Z,1.63
2018-06-01T18:19:51.700Z,2.00
2018-06-01T18:22:19.917Z,1.93
2018-06-01T18:24:47.326Z,2.10
2018-06-01T18:29:41.678Z,1.80
2018-06-01T18:32:09.857Z,1.60
2018-06-01T18:39:31.275Z,2.27
2018-06-01T18:41:58.675Z,1.70
2018-06-01T18:44:26.847Z,1.70
2018-06-01T18:46:54.247Z,1.50
2018-06-01T18:51:49.375Z,1.50
2018-06-01T18:54:17.559Z,1.50
2018-06-01T19:01:38.880Z,1.80
2018-06-01T19:04:06.279Z,1.70
2018-06-01T19:06:34.442Z,1.90
2018-06-01T19:09:01.864Z,1.50
2018-06-01T19:11:30.015Z,2.00
2018-06-01T19:13:57.422Z,1.77
2018-06-01T19:18:51.786Z,1.83
2018-06-01T19:21:19.190Z,2.00
2018-06-01T19:23:46.624Z,2.10
2018-06-01T19:31:08.778Z,1.97
2018-06-01T19:33:36.187Z,1.85
2018-06-01T19:36:04.391Z,1.97
2018-06-01T19:38:31.799Z,2.00
2018-06-01T19:40:59.214Z,2.00
2018-06-01T19:43:26.606Z,2.40
2018-06-01T19:45:54.007Z,2.40
2018-06-01T19:48:22.231Z,2.03
2018-06-01T19:50:49.636Z,2.03
2018-06-01T19:53:17.108Z,2.30
2018-06-01T19:58:11.458Z,2.17
2018-06-01T20:00:38.869Z,2.20
2018-06-01T20:03:07.040Z,2.20
2018-06-01T20:05:34.451Z,2.23
2018-06-01T20:08:01.872Z,2.17
2018-06-01T20:10:29.278Z,2.20
2018-06-01T20:12:56.683Z,2.50
2018-06-01T20:17:51.824Z,3.17
2018-06-01T20:20:19.227Z,2.27
2018-06-01T20:22:46.635Z,2.40
2018-06-01T20:25:14.052Z,3.40
2018-06-01T20:27:41.468Z,2.90
2018-06-01T20:30:08.870Z,2.97
2018-06-01T20:32:36.302Z,2.67
2018-06-01T20:35:03.722Z,2.63
2018-06-01T20:37:31.133Z,2.80
2018-06-01T20:39:58.559Z,2.67
2018-06-01T20:42:25.964Z,2.43
2018-06-01T20:44:53.372Z,2.43
2018-06-01T20:47:20.775Z,2.60
2018-06-01T20:49:48.952Z,2.60
2018-06-01T20:52:16.379Z,2.40
2018-06-01T20:54:44.557Z,2.60
2018-06-01T20:57:11.952Z,2.23
2018-06-01T20:59:39.355Z,2.60
2018-06-01T21:02:06.767Z,2.30
2018-06-01T21:04:34.172Z,2.47
2018-06-01T21:07:01.596Z,2.33
2018-06-01T21:09:29.015Z,2.60
2018-06-01T21:11:56.440Z,2.80
2018-06-01T21:14:23.841Z,2.43
2018-06-01T21:16:51.288Z,2.53
2018-06-01T21:19:18.683Z,2.97
2018-06-01T21:21:46.088Z,2.80
2018-06-01T21:24:14.255Z,2.60
2018-06-01T21:26:41.660Z,2.90
2018-06-01T21:29:09.067Z,2.70
2018-06-01T21:31:36.539Z,3.00
2018-06-01T21:34:03.947Z,2.53
2018-06-01T21:36:31.361Z,2.53
2018-06-01T21:38:58.797Z,2.63
2018-06-01T21:41:26.171Z,2.57
2018-06-01T21:43:53.575Z,2.60
2018-06-01T21:46:21.746Z,2.93
2018-06-01T21:48:49.155Z,2.77
2018-06-01T21:51:16.582Z,3.10
2018-06-01T21:53:43.971Z,3.03
2018-06-01T21:56:11.383Z,3.07
2018-06-01T21:58:39.606Z,2.97
2018-06-01T22:01:07.136Z,2.97
2018-06-01T22:03:34.544Z,2.83
2018-06-01T22:06:02.711Z,3.07
2018-06-01T22:08:30.116Z,2.70
2018-06-01T22:10:57.519Z,2.90
2018-06-01T22:13:24.932Z,3.13
2018-06-01T22:15:52.330Z,3.03
2018-06-01T22:18:19.748Z,3.43
2018-06-01T22:20:47.147Z,3.17
2018-06-01T22:23:14.554Z,3.60
2018-06-01T22:25:41.964Z,3.60
2018-06-01T22:28:09.369Z,2.90
2018-06-01T22:30:37.543Z,3.37
2018-06-01T22:33:04.960Z,3.10
2018-06-01T22:35:33.129Z,3.30
2018-06-01T22:38:00.530Z,3.10
2018-06-01T22:40:27.935Z,3.47
2018-06-01T22:42:55.338Z,3.20
2018-06-01T22:45:23.507Z,3.60
2018-06-01T22:47:51.675Z,3.40
2018-06-01T22:50:19.078Z,3.30
2018-06-01T22:52:46.482Z,3.20
2018-06-01T22:55:13.900Z,2.70
2018-06-01T22:57:41.311Z,3.10
2018-06-01T23:00:08.719Z,2.90
2018-06-01T23:05:03.071Z,3.00
2018-06-01T23:07:30.495Z,2.80
2018-06-01T23:12:24.852Z,3.20
2018-06-01T23:14:53.035Z,3.07
2018-06-01T23:17:20.444Z,3.13
2018-06-01T23:19:47.943Z,3.20
2018-06-01T23:22:15.559Z,3.30
2018-06-01T23:24:42.967Z,3.50
2018-06-01T23:27:10.367Z,3.10
2018-06-01T23:29:37.775Z,3.60
2018-06-01T23:32:05.179Z,3.87
2018-06-01T23:49:15.897Z,5.10
2018-06-01T23:51:43.302Z,4.63
2018-06-01T23:54:11.475Z,5.00
2018-06-01T23:56:38.879Z,4.50
2018-06-01T23:59:06.287Z,4.83
